sensor_id;sensor_type;location;lat;lon;timestamp;P1;durP1;ratioP1;P2;durP2;ratioP2
15132;SDS011;7667;51.232;17.110;2023-02-01T00:01:07;2.47;;;1.00;;
15132;SDS011;7667;51.232;17.110;2023-02-01T00:03:35;3.53;;;0.90;;
15132;SDS011;7667;51.232;17.110;2023-02-01T00:06:03;2.87;;;0.93;;
15132;SDS011;7667;51.232;17.110;2023-02-01T00:08:31;3.80;;;1.10;;
15132;SDS011;7667;51.232;17.110;2023-02-01T00:11:02;2.60;;;1.13;;
15132;SDS011;7667;51.232;17.110;2023-02-01T00:13:36;3.37;;;1.17;;
15132;SDS011;7667;51.232;17.110;2023-02-01T00:16:07;3.67;;;1.20;;
15132;SDS011;7667;51.232;17.110;2023-02-01T00:18:43;3.53;;;1.20;;
15132;SDS011;7667;51.232;17.110;2023-02-01T00:21:12;3.33;;;1.20;;
15132;SDS011;7667;51.232;17.110;2023-02-01T00:23:41;2.63;;;1.10;;
15132;SDS011;7667;51.232;17.110;2023-02-01T00:26:16;3.13;;;1.00;;
15132;SDS011;7667;51.232;17.110;2023-02-01T00:28:57;4.30;;;1.17;;
15132;SDS011;7667;51.232;17.110;2023-02-01T00:31:24;4.67;;;1.27;;
15132;SDS011;7667;51.232;17.110;2023-02-01T00:33:54;2.50;;;1.00;;
15132;SDS011;7667;51.232;17.110;2023-02-01T00:36:22;2.20;;;0.80;;
15132;SDS011;7667;51.232;17.110;2023-02-01T00:38:50;4.17;;;1.33;;
15132;SDS011;7667;51.232;17.110;2023-02-01T00:41:19;4.93;;;1.27;;
15132;SDS011;7667;51.232;17.110;2023-02-01T00:43:47;1.77;;;1.00;;
15132;SDS011;7667;51.232;17.110;2023-02-01T00:46:16;3.77;;;1.27;;
15132;SDS011;7667;51.232;17.110;2023-02-01T00:48:45;2.50;;;1.27;;
15132;SDS011;7667;51.232;17.110;2023-02-01T00:51:14;5.80;;;1.30;;
15132;SDS011;7667;51.232;17.110;2023-02-01T00:53:45;2.40;;;1.37;;
15132;SDS011;7667;51.232;17.110;2023-02-01T00:56:13;3.73;;;1.33;;
15132;SDS011;7667;51.232;17.110;2023-02-01T00:58:41;5.53;;;1.30;;
15132;SDS011;7667;51.232;17.110;2023-02-01T01:01:18;3.37;;;1.10;;
15132;SDS011;7667;51.232;17.110;2023-02-01T01:03:50;5.47;;;1.60;;
15132;SDS011;7667;51.232;17.110;2023-02-01T01:06:25;3.97;;;1.33;;
15132;SDS011;7667;51.232;17.110;2023-02-01T01:08:56;4.73;;;1.20;;
15132;SDS011;7667;51.232;17.110;2023-02-01T01:11:26;3.67;;;1.30;;
15132;SDS011;7667;51.232;17.110;2023-02-01T01:13:57;3.40;;;1.50;;
15132;SDS011;7667;51.232;17.110;2023-02-01T01:16:27;3.60;;;1.33;;
15132;SDS011;7667;51.232;17.110;2023-02-01T01:18:57;6.23;;;2.13;;
15132;SDS011;7667;51.232;17.110;2023-02-01T01:21:25;6.67;;;1.83;;
15132;SDS011;7667;51.232;17.110;2023-02-01T01:23:53;7.97;;;1.87;;
15132;SDS011;7667;51.232;17.110;2023-02-01T01:26:22;3.87;;;1.63;;
15132;SDS011;7667;51.232;17.110;2023-02-01T01:28:55;4.13;;;1.47;;
15132;SDS011;7667;51.232;17.110;2023-02-01T01:31:24;4.50;;;1.60;;
15132;SDS011;7667;51.232;17.110;2023-02-01T01:33:53;3.73;;;1.50;;
15132;SDS011;7667;51.232;17.110;2023-02-01T01:36:24;4.23;;;1.40;;
15132;SDS011;7667;51.232;17.110;2023-02-01T01:38:53;3.93;;;1.33;;
15132;SDS011;7667;51.232;17.110;2023-02-01T01:41:23;3.57;;;1.50;;
15132;SDS011;7667;51.232;17.110;2023-02-01T01:43:55;4.87;;;1.50;;
15132;SDS011;7667;51.232;17.110;2023-02-01T01:46:32;4.33;;;1.43;;
15132;SDS011;7667;51.232;17.110;2023-02-01T01:49:06;3.77;;;1.20;;
15132;SDS011;7667;51.232;17.110;2023-02-01T01:51:58;4.60;;;1.30;;
15132;SDS011;7667;51.232;17.110;2023-02-01T01:54:38;2.93;;;1.37;;
15132;SDS011;7667;51.232;17.110;2023-02-01T01:57:14;2.27;;;1.00;;
15132;SDS011;7667;51.232;17.110;2023-02-01T01:59:58;4.10;;;1.20;;
15132;SDS011;7667;51.232;17.110;2023-02-01T02:02:40;2.77;;;1.10;;
15132;SDS011;7667;51.232;17.110;2023-02-01T02:05:11;4.33;;;1.00;;
15132;SDS011;7667;51.232;17.110;2023-02-01T02:07:40;2.97;;;0.87;;
15132;SDS011;7667;51.232;17.110;2023-02-01T02:10:14;4.77;;;0.97;;
15132;SDS011;7667;51.232;17.110;2023-02-01T02:12:44;2.30;;;1.00;;
15132;SDS011;7667;51.232;17.110;2023-02-01T02:15:14;3.30;;;0.83;;
15132;SDS011;7667;51.232;17.110;2023-02-01T02:17:53;3.40;;;1.03;;
15132;SDS011;7667;51.232;17.110;2023-02-01T02:39:05;3.83;;;1.07;;
15132;SDS011;7667;51.232;17.110;2023-02-01T02:47:54;4.00;;;1.20;;
15132;SDS011;7667;51.232;17.110;2023-02-01T02:50:42;5.70;;;1.40;;
15132;SDS011;7667;51.232;17.110;2023-02-01T02:54:05;5.77;;;1.77;;
15132;SDS011;7667;51.232;17.110;2023-02-01T02:57:03;6.47;;;1.57;;
15132;SDS011;7667;51.232;17.110;2023-02-01T02:59:54;6.20;;;1.77;;
15132;SDS011;7667;51.232;17.110;2023-02-01T03:02:43;4.23;;;1.60;;
15132;SDS011;7667;51.232;17.110;2023-02-01T03:05:35;6.27;;;2.13;;
15132;SDS011;7667;51.232;17.110;2023-02-01T03:08:10;5.63;;;1.70;;
15132;SDS011;7667;51.232;17.110;2023-02-01T03:24:25;10.27;;;2.43;;
15132;SDS011;7667;51.232;17.110;2023-02-01T03:27:18;8.60;;;2.30;;
15132;SDS011;7667;51.232;17.110;2023-02-01T03:32:54;6.47;;;1.87;;
15132;SDS011;7667;51.232;17.110;2023-02-01T03:44:29;7.83;;;2.27;;
15132;SDS011;7667;51.232;17.110;2023-02-01T03:47:12;8.37;;;1.90;;
15132;SDS011;7667;51.232;17.110;2023-02-01T03:49:52;11.27;;;2.13;;
15132;SDS011;7667;51.232;17.110;2023-02-01T03:52:32;9.97;;;2.33;;
15132;SDS011;7667;51.232;17.110;2023-02-01T03:55:07;7.47;;;1.90;;
15132;SDS011;7667;51.232;17.110;2023-02-01T03:58:13;6.73;;;1.83;;
15132;SDS011;7667;51.232;17.110;2023-02-01T04:00:44;6.73;;;1.80;;
15132;SDS011;7667;51.232;17.110;2023-02-01T04:03:25;9.70;;;2.10;;
15132;SDS011;7667;51.232;17.110;2023-02-01T04:05:54;5.83;;;1.80;;
15132;SDS011;7667;51.232;17.110;2023-02-01T04:08:22;8.93;;;2.23;;
15132;SDS011;7667;51.232;17.110;2023-02-01T04:10:50;6.77;;;1.80;;
15132;SDS011;7667;51.232;17.110;2023-02-01T04:13:18;9.13;;;2.47;;
15132;SDS011;7667;51.232;17.110;2023-02-01T04:15:46;7.53;;;2.17;;
15132;SDS011;7667;51.232;17.110;2023-02-01T04:18:16;12.10;;;2.17;;
15132;SDS011;7667;51.232;17.110;2023-02-01T04:20:44;6.97;;;1.77;;
15132;SDS011;7667;51.232;17.110;2023-02-01T04:23:11;6.37;;;2.00;;
15132;SDS011;7667;51.232;17.110;2023-02-01T04:25:39;8.93;;;2.33;;
15132;SDS011;7667;51.232;17.110;2023-02-01T04:28:06;8.50;;;2.30;;
15132;SDS011;7667;51.232;17.110;2023-02-01T04:30:34;7.97;;;2.10;;
15132;SDS011;7667;51.232;17.110;2023-02-01T04:33:01;6.73;;;1.90;;
15132;SDS011;7667;51.232;17.110;2023-02-01T04:35:32;8.97;;;2.07;;
15132;SDS011;7667;51.232;17.110;2023-02-01T04:37:59;10.13;;;2.13;;
15132;SDS011;7667;51.232;17.110;2023-02-01T04:40:27;9.20;;;2.43;;
15132;SDS011;7667;51.232;17.110;2023-02-01T04:42:55;8.83;;;2.30;;
15132;SDS011;7667;51.232;17.110;2023-02-01T04:45:22;9.47;;;2.00;;
15132;SDS011;7667;51.232;17.110;2023-02-01T04:47:49;8.47;;;2.00;;
15132;SDS011;7667;51.232;17.110;2023-02-01T04:50:17;8.93;;;2.07;;
15132;SDS011;7667;51.232;17.110;2023-02-01T04:52:44;7.77;;;2.40;;
15132;SDS011;7667;51.232;17.110;2023-02-01T04:55:12;5.73;;;2.07;;
15132;SDS011;7667;51.232;17.110;2023-02-01T04:57:40;8.87;;;2.40;;
15132;SDS011;7667;51.232;17.110;2023-02-01T05:00:08;5.67;;;1.90;;
15132;SDS011;7667;51.232;17.110;2023-02-01T05:02:36;9.10;;;2.27;;
15132;SDS011;7667;51.232;17.110;2023-02-01T05:05:04;10.27;;;2.30;;
15132;SDS011;7667;51.232;17.110;2023-02-01T05:07:32;8.97;;;2.20;;
15132;SDS011;7667;51.232;17.110;2023-02-01T05:10:00;10.70;;;2.17;;
15132;SDS011;7667;51.232;17.110;2023-02-01T05:12:27;5.50;;;2.00;;
15132;SDS011;7667;51.232;17.110;2023-02-01T05:15:13;6.97;;;2.27;;
15132;SDS011;7667;51.232;17.110;2023-02-01T05:17:41;6.90;;;1.70;;
15132;SDS011;7667;51.232;17.110;2023-02-01T05:20:08;8.03;;;2.07;;
15132;SDS011;7667;51.232;17.110;2023-02-01T05:22:37;6.10;;;1.90;;
15132;SDS011;7667;51.232;17.110;2023-02-01T05:25:04;8.53;;;2.43;;
15132;SDS011;7667;51.232;17.110;2023-02-01T05:27:33;7.17;;;2.20;;
15132;SDS011;7667;51.232;17.110;2023-02-01T05:30:03;9.63;;;2.63;;
15132;SDS011;7667;51.232;17.110;2023-02-01T05:32:32;8.33;;;2.43;;
15132;SDS011;7667;51.232;17.110;2023-02-01T05:35:00;8.17;;;1.90;;
15132;SDS011;7667;51.232;17.110;2023-02-01T05:37:28;7.77;;;2.50;;
15132;SDS011;7667;51.232;17.110;2023-02-01T05:39:55;7.87;;;2.60;;
15132;SDS011;7667;51.232;17.110;2023-02-01T05:42:23;7.47;;;1.87;;
15132;SDS011;7667;51.232;17.110;2023-02-01T05:44:50;8.97;;;1.97;;
15132;SDS011;7667;51.232;17.110;2023-02-01T05:47:18;9.67;;;2.20;;
15132;SDS011;7667;51.232;17.110;2023-02-01T05:49:47;5.70;;;1.67;;
15132;SDS011;7667;51.232;17.110;2023-02-01T05:52:14;7.70;;;1.87;;
15132;SDS011;7667;51.232;17.110;2023-02-01T05:54:46;10.70;;;2.40;;
15132;SDS011;7667;51.232;17.110;2023-02-01T05:57:14;10.70;;;2.33;;
15132;SDS011;7667;51.232;17.110;2023-02-01T05:59:41;6.60;;;2.17;;
15132;SDS011;7667;51.232;17.110;2023-02-01T06:02:11;6.77;;;2.23;;
15132;SDS011;7667;51.232;17.110;2023-02-01T06:04:39;8.87;;;2.30;;
15132;SDS011;7667;51.232;17.110;2023-02-01T06:07:07;10.80;;;2.47;;
15132;SDS011;7667;51.232;17.110;2023-02-01T06:09:37;7.67;;;2.03;;
15132;SDS011;7667;51.232;17.110;2023-02-01T06:12:04;9.73;;;1.97;;
15132;SDS011;7667;51.232;17.110;2023-02-01T06:14:32;5.80;;;2.13;;
15132;SDS011;7667;51.232;17.110;2023-02-01T06:17:00;6.67;;;2.10;;
15132;SDS011;7667;51.232;17.110;2023-02-01T06:19:27;7.40;;;2.00;;
15132;SDS011;7667;51.232;17.110;2023-02-01T06:21:55;6.83;;;2.20;;
15132;SDS011;7667;51.232;17.110;2023-02-01T06:24:22;6.13;;;2.07;;
15132;SDS011;7667;51.232;17.110;2023-02-01T06:26:50;6.67;;;1.80;;
15132;SDS011;7667;51.232;17.110;2023-02-01T06:29:17;5.80;;;1.90;;
15132;SDS011;7667;51.232;17.110;2023-02-01T06:31:45;8.17;;;2.40;;
15132;SDS011;7667;51.232;17.110;2023-02-01T06:34:12;8.13;;;1.97;;
15132;SDS011;7667;51.232;17.110;2023-02-01T06:36:40;9.10;;;1.87;;
15132;SDS011;7667;51.232;17.110;2023-02-01T06:39:07;7.37;;;1.87;;
15132;SDS011;7667;51.232;17.110;2023-02-01T06:41:35;9.40;;;2.17;;
15132;SDS011;7667;51.232;17.110;2023-02-01T06:44:02;9.53;;;2.50;;
15132;SDS011;7667;51.232;17.110;2023-02-01T06:46:30;7.00;;;2.37;;
15132;SDS011;7667;51.232;17.110;2023-02-01T06:48:57;7.73;;;2.20;;
15132;SDS011;7667;51.232;17.110;2023-02-01T06:51:26;8.53;;;2.40;;
15132;SDS011;7667;51.232;17.110;2023-02-01T06:53:55;7.70;;;2.13;;
15132;SDS011;7667;51.232;17.110;2023-02-01T06:56:24;10.13;;;2.37;;
15132;SDS011;7667;51.232;17.110;2023-02-01T06:58:52;7.00;;;2.40;;
15132;SDS011;7667;51.232;17.110;2023-02-01T07:01:20;10.80;;;2.40;;
15132;SDS011;7667;51.232;17.110;2023-02-01T07:03:48;6.07;;;1.77;;
15132;SDS011;7667;51.232;17.110;2023-02-01T07:06:19;7.10;;;2.33;;
15132;SDS011;7667;51.232;17.110;2023-02-01T07:08:47;6.50;;;1.93;;
15132;SDS011;7667;51.232;17.110;2023-02-01T07:11:15;5.73;;;2.27;;
15132;SDS011;7667;51.232;17.110;2023-02-01T07:13:45;7.07;;;2.33;;
15132;SDS011;7667;51.232;17.110;2023-02-01T07:16:15;5.40;;;1.80;;
15132;SDS011;7667;51.232;17.110;2023-02-01T07:18:46;6.13;;;2.07;;
15132;SDS011;7667;51.232;17.110;2023-02-01T07:21:14;6.73;;;2.27;;
15132;SDS011;7667;51.232;17.110;2023-02-01T07:23:42;6.30;;;2.00;;
15132;SDS011;7667;51.232;17.110;2023-02-01T07:26:10;6.43;;;2.53;;
15132;SDS011;7667;51.232;17.110;2023-02-01T07:28:40;6.13;;;2.10;;
15132;SDS011;7667;51.232;17.110;2023-02-01T07:31:09;6.63;;;1.77;;
15132;SDS011;7667;51.232;17.110;2023-02-01T07:33:44;8.20;;;2.20;;
15132;SDS011;7667;51.232;17.110;2023-02-01T07:36:15;6.57;;;2.43;;
15132;SDS011;7667;51.232;17.110;2023-02-01T07:38:43;6.80;;;2.00;;
15132;SDS011;7667;51.232;17.110;2023-02-01T07:41:13;10.27;;;2.40;;
15132;SDS011;7667;51.232;17.110;2023-02-01T07:43:42;8.90;;;2.30;;
15132;SDS011;7667;51.232;17.110;2023-02-01T07:46:10;6.90;;;2.20;;
15132;SDS011;7667;51.232;17.110;2023-02-01T07:48:38;7.37;;;2.43;;
15132;SDS011;7667;51.232;17.110;2023-02-01T07:51:09;6.83;;;2.23;;
15132;SDS011;7667;51.232;17.110;2023-02-01T07:53:40;7.23;;;2.00;;
15132;SDS011;7667;51.232;17.110;2023-02-01T07:56:12;11.07;;;2.47;;
15132;SDS011;7667;51.232;17.110;2023-02-01T07:58:49;8.60;;;2.33;;
15132;SDS011;7667;51.232;17.110;2023-02-01T08:01:20;8.90;;;3.00;;
15132;SDS011;7667;51.232;17.110;2023-02-01T08:03:52;6.53;;;1.97;;
15132;SDS011;7667;51.232;17.110;2023-02-01T08:06:26;5.63;;;2.13;;
15132;SDS011;7667;51.232;17.110;2023-02-01T08:08:56;6.90;;;2.00;;
15132;SDS011;7667;51.232;17.110;2023-02-01T08:11:24;7.40;;;2.10;;
15132;SDS011;7667;51.232;17.110;2023-02-01T08:13:52;7.90;;;2.03;;
15132;SDS011;7667;51.232;17.110;2023-02-01T08:16:21;9.27;;;2.40;;
15132;SDS011;7667;51.232;17.110;2023-02-01T08:18:50;6.13;;;2.13;;
15132;SDS011;7667;51.232;17.110;2023-02-01T08:21:19;10.43;;;2.57;;
15132;SDS011;7667;51.232;17.110;2023-02-01T08:24:03;7.20;;;2.43;;
15132;SDS011;7667;51.232;17.110;2023-02-01T08:26:32;5.40;;;2.03;;
15132;SDS011;7667;51.232;17.110;2023-02-01T08:29:01;6.27;;;2.27;;
15132;SDS011;7667;51.232;17.110;2023-02-01T08:31:31;7.30;;;2.03;;
15132;SDS011;7667;51.232;17.110;2023-02-01T08:34:00;7.47;;;2.83;;
15132;SDS011;7667;51.232;17.110;2023-02-01T08:36:31;6.13;;;2.40;;
15132;SDS011;7667;51.232;17.110;2023-02-01T08:38:59;7.33;;;2.03;;
15132;SDS011;7667;51.232;17.110;2023-02-01T08:41:29;7.70;;;2.43;;
15132;SDS011;7667;51.232;17.110;2023-02-01T08:43:57;6.00;;;2.20;;
15132;SDS011;7667;51.232;17.110;2023-02-01T08:46:24;5.63;;;2.10;;
15132;SDS011;7667;51.232;17.110;2023-02-01T08:48:52;6.87;;;2.20;;
15132;SDS011;7667;51.232;17.110;2023-02-01T08:51:21;6.07;;;2.20;;
15132;SDS011;7667;51.232;17.110;2023-02-01T08:53:50;6.13;;;2.10;;
15132;SDS011;7667;51.232;17.110;2023-02-01T08:56:18;7.67;;;2.37;;
15132;SDS011;7667;51.232;17.110;2023-02-01T08:58:46;6.93;;;2.13;;
15132;SDS011;7667;51.232;17.110;2023-02-01T09:01:14;6.10;;;2.37;;
15132;SDS011;7667;51.232;17.110;2023-02-01T09:03:43;6.30;;;2.33;;
15132;SDS011;7667;51.232;17.110;2023-02-01T09:06:13;5.53;;;2.27;;
15132;SDS011;7667;51.232;17.110;2023-02-01T09:08:42;6.73;;;2.00;;
15132;SDS011;7667;51.232;17.110;2023-02-01T09:11:11;4.63;;;2.13;;
15132;SDS011;7667;51.232;17.110;2023-02-01T09:13:46;8.13;;;2.30;;
15132;SDS011;7667;51.232;17.110;2023-02-01T09:16:15;7.60;;;2.60;;
15132;SDS011;7667;51.232;17.110;2023-02-01T09:18:43;6.20;;;2.60;;
15132;SDS011;7667;51.232;17.110;2023-02-01T09:21:27;6.77;;;2.37;;
15132;SDS011;7667;51.232;17.110;2023-02-01T09:23:55;7.67;;;2.70;;
15132;SDS011;7667;51.232;17.110;2023-02-01T09:26:22;9.77;;;2.97;;
15132;SDS011;7667;51.232;17.110;2023-02-01T09:28:57;9.00;;;2.73;;
15132;SDS011;7667;51.232;17.110;2023-02-01T09:31:26;5.33;;;2.67;;
15132;SDS011;7667;51.232;17.110;2023-02-01T09:33:54;7.77;;;2.90;;
15132;SDS011;7667;51.232;17.110;2023-02-01T09:36:21;8.70;;;3.10;;
15132;SDS011;7667;51.232;17.110;2023-02-01T09:38:50;7.90;;;2.70;;
15132;SDS011;7667;51.232;17.110;2023-02-01T09:47:39;8.73;;;3.07;;
15132;SDS011;7667;51.232;17.110;2023-02-01T09:50:17;7.90;;;3.00;;
15132;SDS011;7667;51.232;17.110;2023-02-01T09:53:29;7.57;;;2.43;;
15132;SDS011;7667;51.232;17.110;2023-02-01T09:56:05;9.53;;;2.50;;
15132;SDS011;7667;51.232;17.110;2023-02-01T09:58:41;6.43;;;2.23;;
15132;SDS011;7667;51.232;17.110;2023-02-01T10:01:16;7.37;;;2.27;;
15132;SDS011;7667;51.232;17.110;2023-02-01T10:03:49;7.63;;;2.07;;
15132;SDS011;7667;51.232;17.110;2023-02-01T10:21:53;5.40;;;2.20;;
15132;SDS011;7667;51.232;17.110;2023-02-01T10:24:31;6.77;;;2.47;;
15132;SDS011;7667;51.232;17.110;2023-02-01T10:32:51;4.43;;;2.10;;
15132;SDS011;7667;51.232;17.110;2023-02-01T10:35:27;4.33;;;2.23;;
15132;SDS011;7667;51.232;17.110;2023-02-01T10:37:59;6.90;;;2.40;;
15132;SDS011;7667;51.232;17.110;2023-02-01T10:40:29;5.63;;;2.23;;
15132;SDS011;7667;51.232;17.110;2023-02-01T10:43:00;5.33;;;2.07;;
15132;SDS011;7667;51.232;17.110;2023-02-01T10:45:29;6.10;;;2.40;;
15132;SDS011;7667;51.232;17.110;2023-02-01T10:47:59;5.57;;;2.40;;
15132;SDS011;7667;51.232;17.110;2023-02-01T10:50:37;4.53;;;2.00;;
15132;SDS011;7667;51.232;17.110;2023-02-01T10:56:09;5.87;;;2.40;;
15132;SDS011;7667;51.232;17.110;2023-02-01T10:58:47;6.63;;;2.60;;
15132;SDS011;7667;51.232;17.110;2023-02-01T11:01:22;6.17;;;3.03;;
15132;SDS011;7667;51.232;17.110;2023-02-01T11:03:58;5.90;;;2.60;;
15132;SDS011;7667;51.232;17.110;2023-02-01T11:06:33;7.07;;;3.00;;
15132;SDS011;7667;51.232;17.110;2023-02-01T11:11:56;8.90;;;3.00;;
15132;SDS011;7667;51.232;17.110;2023-02-01T11:16:52;7.13;;;2.73;;
15132;SDS011;7667;51.232;17.110;2023-02-01T11:19:44;6.20;;;2.60;;
15132;SDS011;7667;51.232;17.110;2023-02-01T11:22:13;6.57;;;3.23;;
15132;SDS011;7667;51.232;17.110;2023-02-01T11:24:44;5.33;;;2.50;;
15132;SDS011;7667;51.232;17.110;2023-02-01T11:27:17;7.97;;;2.87;;
15132;SDS011;7667;51.232;17.110;2023-02-01T11:29:55;5.23;;;2.33;;
15132;SDS011;7667;51.232;17.110;2023-02-01T11:32:26;8.13;;;2.60;;
15132;SDS011;7667;51.232;17.110;2023-02-01T11:34:59;6.73;;;2.87;;
15132;SDS011;7667;51.232;17.110;2023-02-01T11:37:32;4.67;;;2.47;;
15132;SDS011;7667;51.232;17.110;2023-02-01T11:40:21;5.63;;;2.50;;
15132;SDS011;7667;51.232;17.110;2023-02-01T11:45:58;5.97;;;2.83;;
15132;SDS011;7667;51.232;17.110;2023-02-01T11:48:31;5.87;;;2.30;;
15132;SDS011;7667;51.232;17.110;2023-02-01T11:56:58;3.70;;;2.20;;
15132;SDS011;7667;51.232;17.110;2023-02-01T12:06:24;4.00;;;2.10;;
15132;SDS011;7667;51.232;17.110;2023-02-01T12:09:35;4.27;;;2.33;;
15132;SDS011;7667;51.232;17.110;2023-02-01T12:12:21;3.63;;;2.27;;
15132;SDS011;7667;51.232;17.110;2023-02-01T12:17:52;4.80;;;2.40;;
15132;SDS011;7667;51.232;17.110;2023-02-01T12:29:00;3.90;;;2.37;;
15132;SDS011;7667;51.232;17.110;2023-02-01T12:43:38;3.43;;;1.90;;
15132;SDS011;7667;51.232;17.110;2023-02-01T12:46:17;3.77;;;2.20;;
15132;SDS011;7667;51.232;17.110;2023-02-01T12:51:35;2.87;;;1.80;;
15132;SDS011;7667;51.232;17.110;2023-02-01T12:54:19;3.53;;;2.10;;
15132;SDS011;7667;51.232;17.110;2023-02-01T12:57:03;3.57;;;2.20;;
15132;SDS011;7667;51.232;17.110;2023-02-01T12:59:44;3.10;;;2.00;;
15132;SDS011;7667;51.232;17.110;2023-02-01T13:05:53;3.87;;;2.30;;
15132;SDS011;7667;51.232;17.110;2023-02-01T13:11:46;3.10;;;2.40;;
15132;SDS011;7667;51.232;17.110;2023-02-01T13:17:12;4.27;;;2.30;;
15132;SDS011;7667;51.232;17.110;2023-02-01T13:22:54;4.47;;;2.20;;
15132;SDS011;7667;51.232;17.110;2023-02-01T13:25:47;3.10;;;2.07;;
15132;SDS011;7667;51.232;17.110;2023-02-01T13:37:21;3.47;;;2.00;;
15132;SDS011;7667;51.232;17.110;2023-02-01T13:39:47;3.33;;;1.80;;
15132;SDS011;7667;51.232;17.110;2023-02-01T13:45:55;2.73;;;1.50;;
15132;SDS011;7667;51.232;17.110;2023-02-01T13:51:42;2.77;;;1.47;;
15132;SDS011;7667;51.232;17.110;2023-02-01T13:54:25;4.63;;;1.43;;
15132;SDS011;7667;51.232;17.110;2023-02-01T13:57:06;1.80;;;1.40;;
15132;SDS011;7667;51.232;17.110;2023-02-01T14:00:23;2.63;;;1.50;;
15132;SDS011;7667;51.232;17.110;2023-02-01T14:10:47;3.23;;;1.87;;
15132;SDS011;7667;51.232;17.110;2023-02-01T14:13:29;3.47;;;1.53;;
15132;SDS011;7667;51.232;17.110;2023-02-01T14:24:20;2.93;;;1.30;;
15132;SDS011;7667;51.232;17.110;2023-02-01T14:26:52;3.80;;;1.30;;
15132;SDS011;7667;51.232;17.110;2023-02-01T14:29:33;3.43;;;1.60;;
15132;SDS011;7667;51.232;17.110;2023-02-01T14:32:16;3.33;;;1.40;;
15132;SDS011;7667;51.232;17.110;2023-02-01T14:34:50;3.93;;;1.33;;
15132;SDS011;7667;51.232;17.110;2023-02-01T14:37:27;4.20;;;1.63;;
15132;SDS011;7667;51.232;17.110;2023-02-01T14:40:03;4.73;;;1.93;;
15132;SDS011;7667;51.232;17.110;2023-02-01T14:42:47;3.00;;;1.37;;
15132;SDS011;7667;51.232;17.110;2023-02-01T14:58:55;2.93;;;1.73;;
15132;SDS011;7667;51.232;17.110;2023-02-01T15:01:50;2.90;;;1.37;;
15132;SDS011;7667;51.232;17.110;2023-02-01T15:04:24;4.67;;;1.90;;
15132;SDS011;7667;51.232;17.110;2023-02-01T15:06:54;3.80;;;1.90;;
15132;SDS011;7667;51.232;17.110;2023-02-01T15:09:29;3.47;;;1.73;;
15132;SDS011;7667;51.232;17.110;2023-02-01T15:20:31;5.20;;;1.70;;
15132;SDS011;7667;51.232;17.110;2023-02-01T15:23:05;4.33;;;1.80;;
15132;SDS011;7667;51.232;17.110;2023-02-01T15:25:45;6.83;;;2.50;;
15132;SDS011;7667;51.232;17.110;2023-02-01T15:28:13;3.70;;;1.97;;
15132;SDS011;7667;51.232;17.110;2023-02-01T15:33:28;3.77;;;1.90;;
15132;SDS011;7667;51.232;17.110;2023-02-01T15:36:08;4.80;;;2.00;;
15132;SDS011;7667;51.232;17.110;2023-02-01T15:38:44;6.63;;;2.37;;
15132;SDS011;7667;51.232;17.110;2023-02-01T15:41:18;4.90;;;2.30;;
15132;SDS011;7667;51.232;17.110;2023-02-01T15:46:29;4.70;;;2.20;;
15132;SDS011;7667;51.232;17.110;2023-02-01T15:49:02;4.77;;;2.47;;
15132;SDS011;7667;51.232;17.110;2023-02-01T15:51:31;4.13;;;1.80;;
15132;SDS011;7667;51.232;17.110;2023-02-01T15:54:00;4.77;;;2.40;;
15132;SDS011;7667;51.232;17.110;2023-02-01T15:56:33;5.87;;;2.27;;
15132;SDS011;7667;51.232;17.110;2023-02-01T15:59:17;10.07;;;5.30;;
15132;SDS011;7667;51.232;17.110;2023-02-01T16:01:51;7.03;;;3.57;;
15132;SDS011;7667;51.232;17.110;2023-02-01T16:04:20;7.67;;;3.30;;
15132;SDS011;7667;51.232;17.110;2023-02-01T16:07:00;6.37;;;4.00;;
15132;SDS011;7667;51.232;17.110;2023-02-01T16:09:41;6.53;;;3.27;;
15132;SDS011;7667;51.232;17.110;2023-02-01T16:15:02;4.97;;;3.10;;
15132;SDS011;7667;51.232;17.110;2023-02-01T16:17:30;4.57;;;2.37;;
15132;SDS011;7667;51.232;17.110;2023-02-01T16:19:58;5.43;;;2.20;;
15132;SDS011;7667;51.232;17.110;2023-02-01T16:22:25;5.07;;;1.93;;
15132;SDS011;7667;51.232;17.110;2023-02-01T16:24:53;3.87;;;2.30;;
15132;SDS011;7667;51.232;17.110;2023-02-01T16:27:20;5.77;;;2.40;;
15132;SDS011;7667;51.232;17.110;2023-02-01T16:29:49;4.20;;;2.17;;
15132;SDS011;7667;51.232;17.110;2023-02-01T16:32:17;3.37;;;2.23;;
15132;SDS011;7667;51.232;17.110;2023-02-01T16:34:47;4.27;;;1.87;;
15132;SDS011;7667;51.232;17.110;2023-02-01T16:37:16;3.40;;;2.03;;
15132;SDS011;7667;51.232;17.110;2023-02-01T16:39:50;3.53;;;1.80;;
15132;SDS011;7667;51.232;17.110;2023-02-01T16:42:17;3.47;;;1.90;;
15132;SDS011;7667;51.232;17.110;2023-02-01T16:44:45;3.10;;;1.90;;
15132;SDS011;7667;51.232;17.110;2023-02-01T16:47:16;4.60;;;2.23;;
15132;SDS011;7667;51.232;17.110;2023-02-01T16:49:49;4.27;;;2.13;;
15132;SDS011;7667;51.232;17.110;2023-02-01T16:52:17;3.70;;;2.30;;
15132;SDS011;7667;51.232;17.110;2023-02-01T16:54:50;4.73;;;2.70;;
15132;SDS011;7667;51.232;17.110;2023-02-01T16:57:19;5.70;;;2.43;;
15132;SDS011;7667;51.232;17.110;2023-02-01T16:59:52;4.93;;;2.53;;
15132;SDS011;7667;51.232;17.110;2023-02-01T17:02:19;4.10;;;2.63;;
15132;SDS011;7667;51.232;17.110;2023-02-01T17:04:48;5.10;;;2.80;;
15132;SDS011;7667;51.232;17.110;2023-02-01T17:07:16;5.70;;;2.60;;
15132;SDS011;7667;51.232;17.110;2023-02-01T17:09:45;5.13;;;2.80;;
15132;SDS011;7667;51.232;17.110;2023-02-01T17:12:30;5.60;;;3.07;;
15132;SDS011;7667;51.232;17.110;2023-02-01T17:14:59;5.63;;;3.40;;
15132;SDS011;7667;51.232;17.110;2023-02-01T17:17:29;5.30;;;3.10;;
15132;SDS011;7667;51.232;17.110;2023-02-01T17:20:05;7.97;;;4.27;;
15132;SDS011;7667;51.232;17.110;2023-02-01T17:22:34;6.27;;;3.90;;
15132;SDS011;7667;51.232;17.110;2023-02-01T17:25:01;7.63;;;4.70;;
15132;SDS011;7667;51.232;17.110;2023-02-01T17:27:31;8.97;;;5.67;;
15132;SDS011;7667;51.232;17.110;2023-02-01T17:29:59;10.97;;;5.47;;
15132;SDS011;7667;51.232;17.110;2023-02-01T17:32:29;7.37;;;4.70;;
15132;SDS011;7667;51.232;17.110;2023-02-01T17:34:57;7.43;;;4.50;;
15132;SDS011;7667;51.232;17.110;2023-02-01T17:37:27;7.63;;;4.87;;
15132;SDS011;7667;51.232;17.110;2023-02-01T17:40:00;5.90;;;3.90;;
15132;SDS011;7667;51.232;17.110;2023-02-01T17:42:28;6.03;;;3.53;;
15132;SDS011;7667;51.232;17.110;2023-02-01T17:44:57;4.73;;;3.37;;
15132;SDS011;7667;51.232;17.110;2023-02-01T17:47:28;6.30;;;3.67;;
15132;SDS011;7667;51.232;17.110;2023-02-01T17:49:56;6.73;;;3.70;;
15132;SDS011;7667;51.232;17.110;2023-02-01T17:52:24;6.47;;;3.50;;
15132;SDS011;7667;51.232;17.110;2023-02-01T17:54:51;6.27;;;3.90;;
15132;SDS011;7667;51.232;17.110;2023-02-01T17:57:19;6.90;;;4.03;;
15132;SDS011;7667;51.232;17.110;2023-02-01T17:59:47;6.37;;;4.30;;
15132;SDS011;7667;51.232;17.110;2023-02-01T18:02:21;8.17;;;5.13;;
15132;SDS011;7667;51.232;17.110;2023-02-01T18:04:51;8.87;;;5.50;;
15132;SDS011;7667;51.232;17.110;2023-02-01T18:07:18;8.13;;;5.87;;
15132;SDS011;7667;51.232;17.110;2023-02-01T18:09:46;12.83;;;7.57;;
15132;SDS011;7667;51.232;17.110;2023-02-01T18:12:16;9.63;;;6.63;;
15132;SDS011;7667;51.232;17.110;2023-02-01T18:14:47;10.83;;;7.27;;
15132;SDS011;7667;51.232;17.110;2023-02-01T18:17:15;10.00;;;5.87;;
15132;SDS011;7667;51.232;17.110;2023-02-01T18:19:42;9.70;;;6.23;;
15132;SDS011;7667;51.232;17.110;2023-02-01T18:22:14;8.63;;;6.60;;
15132;SDS011;7667;51.232;17.110;2023-02-01T18:24:44;8.40;;;5.20;;
15132;SDS011;7667;51.232;17.110;2023-02-01T18:27:12;7.00;;;4.40;;
15132;SDS011;7667;51.232;17.110;2023-02-01T18:29:39;8.60;;;3.90;;
15132;SDS011;7667;51.232;17.110;2023-02-01T18:32:08;7.17;;;3.40;;
15132;SDS011;7667;51.232;17.110;2023-02-01T18:34:36;5.53;;;3.27;;
15132;SDS011;7667;51.232;17.110;2023-02-01T18:37:04;7.77;;;3.70;;
15132;SDS011;7667;51.232;17.110;2023-02-01T18:39:31;7.40;;;3.40;;
15132;SDS011;7667;51.232;17.110;2023-02-01T18:41:59;6.30;;;3.07;;